createdAt,value
2018-12-01T00:02:15.199Z,87.72
2018-12-01T00:07:09.771Z,88.08
2018-12-01T00:12:04.353Z,89.23
2018-12-01T00:16:58.967Z,89.28
2018-12-01T00:21:53.578Z,89.59
2018-12-01T00:26:48.241Z,89.85
2018-12-01T00:31:42.811Z,89.91
2018-12-01T00:36:37.363Z,90.25
2018-12-01T00:41:31.892Z,90.96
2018-12-01T00:46:26.463Z,91.16
2018-12-01T00:51:20.976Z,91.33
2018-12-01T00:56:15.490Z,91.12
2018-12-01T01:01:10.044Z,91.31
2018-12-01T01:06:04.636Z,91.35
2018-12-01T01:10:59.201Z,90.08
2018-12-01T01:15:53.714Z,89.83
2018-12-01T01:20:48.335Z,90.51
2018-12-01T01:25:42.798Z,91.20
2018-12-01T01:30:37.299Z,89.99
2018-12-01T01:35:31.875Z,89.57
2018-12-01T01:40:26.379Z,88.63
2018-12-01T01:45:21.295Z,89.08
2018-12-01T01:50:20.651Z,88.67
2018-12-01T01:55:15.247Z,89.37
2018-12-01T02:00:19.228Z,89.37
2018-12-01T02:05:15.106Z,89.20
2018-12-01T02:10:10.960Z,89.59
2018-12-01T02:15:06.668Z,88.36
2018-12-01T02:20:01.143Z,89.31
2018-12-01T02:24:55.625Z,89.38
2018-12-01T02:29:50.200Z,89.54
2018-12-01T02:34:44.764Z,89.67
2018-12-01T02:39:39.213Z,89.63
2018-12-01T02:45:05.824Z,89.28
2018-12-01T02:50:00.289Z,88.00
2018-12-01T02:54:54.775Z,88.28
2018-12-01T02:59:49.323Z,87.96
2018-12-01T03:04:43.939Z,88.00
2018-12-01T03:09:38.402Z,87.86
2018-12-01T03:14:32.855Z,87.65
2018-12-01T03:19:27.335Z,87.57
2018-12-01T03:24:21.831Z,86.80
2018-12-01T03:29:16.333Z,87.34
2018-12-01T03:34:10.883Z,88.69
2018-12-01T03:39:08.521Z,89.44
2018-12-01T03:44:03.035Z,89.27
2018-12-01T03:48:57.498Z,89.19
2018-12-01T03:53:52.045Z,89.90
2018-12-01T03:58:46.511Z,89.65
2018-12-01T04:03:42.355Z,89.37
2018-12-01T04:08:37.080Z,88.91
2018-12-01T04:13:31.632Z,89.50
2018-12-01T04:18:26.130Z,90.67
2018-12-01T04:23:20.805Z,91.41
2018-12-01T04:28:15.361Z,91.38
2018-12-01T04:33:09.851Z,91.04
2018-12-01T04:38:04.471Z,91.12
2018-12-01T04:42:58.955Z,90.21
2018-12-01T04:47:53.444Z,90.22
2018-12-01T04:52:49.381Z,89.73
2018-12-01T04:57:43.932Z,89.33
2018-12-01T05:02:38.605Z,90.62
2018-12-01T05:07:33.144Z,91.62
2018-12-01T05:12:27.683Z,91.03
2018-12-01T05:17:22.167Z,89.83
2018-12-01T05:22:16.720Z,89.58
2018-12-01T05:27:11.302Z,90.78
2018-12-01T05:32:06.743Z,89.79
2018-12-01T05:37:01.274Z,89.26
2018-12-01T05:41:55.764Z,89.56
2018-12-01T05:46:50.292Z,89.36
2018-12-01T05:51:44.851Z,88.85
2018-12-01T05:56:39.354Z,88.57
2018-12-01T06:01:33.907Z,88.77
2018-12-01T06:06:28.444Z,88.28
2018-12-01T06:11:22.995Z,88.25
2018-12-01T06:16:17.495Z,87.87
2018-12-01T06:21:11.969Z,87.69
2018-12-01T06:26:06.502Z,87.55
2018-12-01T06:31:01.795Z,87.25
2018-12-01T06:35:56.331Z,88.13
2018-12-01T06:40:50.797Z,88.25
2018-12-01T06:45:45.328Z,89.07
2018-12-01T06:50:39.839Z,89.19
2018-12-01T06:55:34.427Z,87.85
2018-12-01T07:00:28.986Z,88.15
2018-12-01T07:05:23.474Z,87.78
2018-12-01T07:10:21.610Z,88.90
2018-12-01T07:15:20.697Z,89.02
2018-12-01T07:20:15.350Z,88.65
2018-12-01T07:25:09.858Z,88.05
2018-12-01T07:30:05.223Z,89.35
2018-12-01T07:34:59.728Z,89.16
2018-12-01T07:39:54.292Z,88.67
2018-12-01T07:44:48.818Z,88.34
2018-12-01T07:49:43.415Z,87.66
2018-12-01T07:54:37.895Z,87.58
2018-12-01T07:59:32.391Z,88.09
2018-12-01T08:04:26.887Z,87.01
2018-12-01T08:09:21.439Z,86.48
2018-12-01T08:14:15.944Z,86.10
2018-12-01T08:19:10.467Z,86.01
2018-12-01T08:24:05.160Z,85.90
2018-12-01T08:28:59.664Z,84.37
2018-12-01T08:33:54.296Z,83.87
2018-12-01T08:38:48.787Z,82.25
2018-12-01T08:43:43.311Z,81.94
2018-12-01T08:48:37.844Z,81.12
2018-12-01T08:53:32.364Z,80.87
2018-12-01T08:58:26.805Z,80.14
2018-12-01T09:03:23.975Z,78.07
2018-12-01T09:08:18.644Z,77.20
2018-12-01T09:13:13.268Z,76.17
2018-12-01T09:18:07.864Z,75.25
2018-12-01T09:23:02.375Z,74.28
2018-12-01T09:27:56.914Z,74.65
2018-12-01T09:32:51.422Z,74.80
2018-12-01T09:37:45.956Z,74.44
2018-12-01T09:42:40.536Z,75.17
2018-12-01T09:47:35.027Z,75.16
2018-12-01T09:52:29.523Z,73.43
2018-12-01T09:57:24.010Z,74.07
2018-12-01T10:02:18.515Z,72.67
2018-12-01T10:07:13.069Z,71.36
2018-12-01T10:12:07.619Z,70.25
2018-12-01T10:17:02.104Z,71.09
2018-12-01T10:21:56.627Z,72.35
2018-12-01T10:26:51.121Z,72.86
2018-12-01T10:31:45.673Z,71.51
2018-12-01T10:36:40.144Z,71.99
2018-12-01T10:41:34.662Z,71.79
2018-12-01T10:46:29.215Z,71.97
2018-12-01T10:51:23.831Z,72.79
2018-12-01T10:56:18.394Z,71.66
2018-12-01T11:01:18.212Z,71.42
2018-12-01T11:06:15.335Z,71.97
2018-12-01T11:11:10.299Z,73.75
2018-12-01T11:16:06.054Z,73.92
2018-12-01T11:21:00.559Z,73.39
2018-12-01T11:25:55.350Z,71.88
2018-12-01T11:30:49.916Z,72.82
2018-12-01T11:35:44.474Z,71.62
2018-12-01T11:40:39.027Z,71.61
2018-12-01T11:45:33.543Z,70.21
2018-12-01T11:50:28.134Z,70.83
2018-12-01T11:55:24.033Z,70.76
2018-12-01T12:00:25.075Z,68.64
2018-12-01T12:05:19.614Z,69.48
2018-12-01T12:10:14.452Z,68.15
2018-12-01T12:15:11.102Z,68.91
2018-12-01T12:20:07.900Z,68.80
2018-12-01T12:25:02.547Z,69.44
2018-12-01T12:29:57.360Z,70.15
2018-12-01T12:34:51.995Z,70.84
2018-12-01T12:39:46.501Z,70.29
2018-12-01T12:44:41.018Z,69.92
2018-12-01T12:49:35.563Z,69.01
2018-12-01T12:54:30.225Z,69.49
2018-12-01T12:59:24.793Z,68.56
2018-12-01T13:04:19.299Z,71.34
2018-12-01T13:09:13.988Z,71.86
2018-12-01T13:14:08.706Z,72.29
2018-12-01T13:19:03.277Z,72.94
2018-12-01T13:23:57.866Z,72.79
2018-12-01T13:28:52.700Z,73.09
2018-12-01T13:33:47.427Z,72.60
2018-12-01T13:38:42.021Z,71.11
2018-12-01T13:43:36.677Z,70.37
2018-12-01T13:48:31.261Z,71.04
2018-12-01T13:53:25.808Z,70.06
2018-12-01T13:58:20.343Z,70.34
2018-12-01T14:03:14.862Z,68.95
2018-12-01T14:08:09.403Z,69.34
2018-12-01T14:13:07.903Z,68.42
2018-12-01T14:18:02.371Z,69.13
2018-12-01T14:22:56.899Z,69.34
2018-12-01T14:27:57.863Z,69.45
2018-12-01T14:32:52.555Z,70.33
2018-12-01T14:37:50.852Z,70.82
2018-12-01T14:42:45.555Z,71.15
2018-12-01T14:47:40.234Z,72.62
2018-12-01T14:52:34.776Z,73.44
2018-12-01T14:57:29.272Z,73.97
2018-12-01T15:02:23.784Z,75.46
2018-12-01T15:07:18.296Z,79.15
2018-12-01T15:12:12.912Z,82.00
2018-12-01T15:17:07.503Z,82.97
2018-12-01T15:22:02.003Z,84.52
2018-12-01T15:26:56.535Z,85.18
2018-12-01T15:31:51.082Z,85.48
2018-12-01T15:36:45.688Z,85.96
2018-12-01T15:41:40.440Z,85.84
2018-12-01T15:46:35.071Z,86.13
2018-12-01T15:51:29.587Z,86.15
2018-12-01T15:56:24.073Z,85.97
2018-12-01T16:01:18.879Z,86.12
2018-12-01T16:06:13.403Z,86.61
2018-12-01T16:11:08.031Z,86.94
2018-12-01T16:16:07.277Z,87.40
2018-12-01T16:21:02.127Z,87.35
2018-12-01T16:25:56.663Z,87.60
2018-12-01T16:30:51.286Z,87.41
2018-12-01T16:35:45.988Z,87.72
2018-12-01T16:40:48.623Z,87.65
2018-12-01T16:45:44.697Z,87.56
2018-12-01T16:50:39.394Z,87.70
2018-12-01T16:55:34.001Z,88.25
2018-12-01T17:00:28.792Z,88.22
2018-12-01T17:05:25.675Z,88.05
2018-12-01T17:10:22.147Z,88.81
2018-12-01T17:15:20.519Z,88.42
2018-12-01T17:20:16.194Z,88.26
2018-12-01T17:25:13.676Z,88.88
2018-12-01T17:30:30.836Z,87.71
2018-12-01T17:35:29.375Z,89.16
2018-12-01T17:40:31.876Z,89.23
2018-12-01T17:45:26.452Z,89.65
2018-12-01T17:50:21.249Z,89.64
2018-12-01T17:55:17.043Z,89.23
2018-12-01T18:00:16.446Z,89.61
2018-12-01T18:05:15.036Z,90.25
2018-12-01T18:10:13.035Z,91.09
2018-12-01T18:15:16.023Z,91.64
2018-12-01T18:20:18.844Z,92.46
2018-12-01T18:25:13.646Z,92.61
2018-12-01T18:30:14.881Z,92.54
2018-12-01T18:35:10.117Z,92.46
2018-12-01T18:40:12.492Z,91.69
2018-12-01T18:45:13.658Z,90.82
2018-12-01T18:50:14.098Z,90.55
2018-12-01T18:55:12.952Z,90.79
2018-12-01T19:00:16.161Z,88.75
2018-12-01T19:05:10.919Z,89.17
2018-12-01T19:10:10.327Z,87.76
2018-12-01T19:15:05.461Z,87.08
2018-12-01T19:20:00.076Z,87.36
2018-12-01T19:24:54.828Z,85.84
2018-12-01T19:29:49.754Z,84.20
2018-12-01T19:34:44.436Z,83.80
2018-12-01T19:39:39.075Z,84.70
2018-12-01T19:44:33.727Z,83.26
2018-12-01T19:49:28.435Z,83.92
2018-12-01T19:54:23.074Z,84.07
2018-12-01T19:59:17.736Z,85.24
2018-12-01T20:04:12.446Z,84.01
2018-12-01T20:09:09.188Z,83.93
2018-12-01T20:14:04.951Z,84.01
2018-12-01T20:18:59.590Z,84.45
2018-12-01T20:23:54.271Z,85.65
2018-12-01T20:28:48.928Z,86.10
2018-12-01T20:33:43.675Z,85.79
2018-12-01T20:39:43.832Z,85.16
2018-12-01T20:44:39.071Z,85.14
2018-12-01T20:49:33.707Z,85.49
2018-12-01T20:54:36.340Z,85.81
2018-12-01T20:59:30.932Z,84.85
2018-12-01T21:04:25.595Z,84.53
2018-12-01T21:09:20.246Z,83.90
2018-12-01T21:14:14.902Z,83.82
2018-12-01T21:19:09.551Z,84.83
2018-12-01T21:24:04.161Z,84.74
2018-12-01T21:28:58.779Z,84.14
2018-12-01T21:33:53.521Z,82.83
2018-12-01T21:38:48.114Z,84.23
2018-12-01T21:43:42.737Z,84.51
2018-12-01T21:48:37.369Z,84.48
2018-12-01T21:53:32.103Z,84.31
2018-12-01T21:58:26.834Z,82.99
2018-12-01T22:03:21.891Z,82.15
2018-12-01T22:08:17.519Z,82.83
2018-12-01T22:13:12.487Z,82.09
2018-12-01T22:18:07.388Z,82.15
2018-12-01T22:23:02.703Z,83.13
2018-12-01T22:27:57.398Z,81.95
2018-12-01T22:32:56.919Z,81.30
2018-12-01T22:37:52.390Z,81.67
2018-12-01T22:42:47.035Z,81.66
2018-12-01T22:47:41.858Z,80.26
2018-12-01T22:52:36.573Z,80.88
2018-12-01T22:57:31.223Z,81.62
2018-12-01T23:02:25.978Z,82.55
2018-12-01T23:07:20.562Z,83.66
2018-12-01T23:12:15.238Z,83.18
2018-12-01T23:17:09.859Z,82.90
2018-12-01T23:22:04.559Z,82.82
2018-12-01T23:26:59.914Z,82.64
2018-12-01T23:31:54.475Z,82.66
2018-12-01T23:36:49.031Z,82.21
2018-12-01T23:41:43.552Z,82.35
2018-12-01T23:46:38.174Z,81.20
2018-12-01T23:51:32.762Z,80.89
2018-12-01T23:56:27.650Z,80.53
